VOBZ/VGA METAR and TAF weather

Enter ICAO airport designator
Station Type Date Time Source
VOBZ METAR 2019/05/23 17:00 UTC NOAA

VOBZ 231700Z 14006KT 4000 BR NSC 30/25 Q1008 NOSIG


Station Type Date Time Source
VOBZ Decoded METAR 2019/05/23 17:00 UTC NOAA

Vijayawada / Gannavaram, India (VOBZ) 16-32N 080-48E 24M
May 23, 2019 - 01:00 PM EDT / 2019.05.23 1700 UTC
Wind: from the SE (140 degrees) at 7 MPH (6 KT):0
Visibility: 2 mile(s):0
Weather: mist
Temperature: 86 F (30 C)
Heat index: 96.8 F (36.0 C):1
Dew Point: 77 F (25 C)
Relative Humidity: 74%
Pressure (altimeter): 29.77 in. Hg (1008 hPa)
ob: VOBZ 231700Z 14006KT 4000 BR NSC 30/25 Q1008 NOSIG
cycle: 17

Station Type Date Time Source
VOBZ TAF 2019/05/11 06:00 UTC NOAA

TAF VOBZ 110500Z 1106/1115 12005KT 6000 FEW020 SCT100
TEMPO 1106/1110 19006KT 5000 HZ SCT025 FEW030TCU
TEMPO 1110/1115 14006KT 4000 HZ FEW025 FEW030CB SCT100

Example: see airport list